Time;durP1;ratioP1;P1;durP2;ratioP2;P2;SDS_P1;SDS_P2;PMS_P1;PMS_P2;Temp;Humidity;BMP_temperature;BMP_pressure;BME280_temperature;BME280_humidity;BME280_pressure;Samples;Min_cycle;Max_cycle;Signal;HPM_P1;HPM_P2
2023/02/21 02:14:51;;;;;;;;;;;;;;;7.75;81.35;99905.88;105129;1290;61107;-73
2023/02/21 02:17:56;;;;;;;;;;;;;;;7.73;81.33;99896.31;104613;1295;61134;-73
2023/02/21 02:21:01;;;;;;;;;;;;;;;7.70;81.34;99897.21;104612;1295;74021;-73
2023/02/21 02:24:06;;;;;;;;;;;;;;;7.70;81.37;99895.67;104620;1296;67528;-73
2023/02/21 02:26:55;;;;;;;;;;;;;;;7.69;81.32;99896.36;104619;1298;71474;-73
2023/02/21 02:30:02;;;;;;;;;;;;;;;7.71;81.38;99902.52;104614;1293;61326;-73
2023/02/21 02:33:09;;;;;;;;;;;;;;;7.73;81.31;99899.91;104549;1294;61153;-74
2023/02/21 02:35:59;;;;;;;;;;;;;;;7.76;81.30;99903.98;104079;1299;73293;-74
2023/02/21 02:38:54;;;;;;;;;;;;;;;7.78;81.14;99913.73;104180;1300;70159;-74
2023/02/21 02:41:48;;;;;;;;;;;;;;;7.81;81.15;99906.62;104122;1300;71317;-74
2023/02/21 02:44:38;;;;;;;;;;;;;;;7.83;81.08;99910.18;104128;1299;59833;-74
2023/02/21 02:47:27;;;;;;;;;;;;;;;7.85;81.01;99907.23;104113;1300;61174;-74
2023/02/21 02:50:14;;;;;;;;;;;;;;;7.86;80.92;99912.53;104075;1299;74184;-73
2023/02/21 02:53:01;;;;;;;;;;;;;;;7.87;81.01;99918.70;103920;1305;259185;-74
2023/02/21 02:55:53;;;;;;;;;;;;;;;7.88;80.89;99918.68;100538;1296;5148851;-74
2023/02/21 02:58:42;;;;;;;;;;;;;;;7.88;80.88;99917.14;104441;1296;61294;-74
2023/02/21 03:01:47;;;;;;;;;;;;;;;7.87;80.83;99924.18;104380;1297;61268;-74
2023/02/21 03:04:44;;;;;;;;;;;;;;;7.85;80.73;99925.60;104475;1296;74327;-74
2023/02/21 03:07:46;;;;;;;;;;;;;;;7.81;80.72;99936.46;104363;1295;67351;-74
2023/02/21 03:10:32;;;;;;;;;;;;;;;7.77;80.73;99932.61;104379;1299;71274;-74
2023/02/21 03:13:28;;;;;;;;;;;;;;;7.73;80.65;99925.46;104711;1288;59446;-73
2023/02/21 03:16:33;;;;;;;;;;;;;;;7.68;80.66;99942.53;105051;1288;61161;-73
2023/02/21 03:19:23;;;;;;;;;;;;;;;7.63;80.61;99949.64;105003;1288;73267;-74
2023/02/21 03:22:12;;;;;;;;;;;;;;;7.58;80.70;99960.34;105036;1288;67294;-74
2023/02/21 03:25:00;;;;;;;;;;;;;;;7.55;80.63;99964.84;104870;1288;71853;-74
2023/02/21 03:27:48;;;;;;;;;;;;;;;7.52;80.57;99966.77;104997;1288;61108;-74
2023/02/21 03:30:34;;;;;;;;;;;;;;;7.48;80.55;99967.52;104923;1288;59350;-74
2023/02/21 03:33:21;;;;;;;;;;;;;;;7.44;80.57;99963.45;104989;1289;73290;-74
2023/02/21 03:36:08;;;;;;;;;;;;;;;7.40;80.58;99966.25;105062;1288;67286;-74
2023/02/21 03:38:54;;;;;;;;;;;;;;;7.35;80.43;99968.38;105079;1288;70325;-74
2023/02/21 03:41:40;;;;;;;;;;;;;;;7.31;80.46;99968.59;104839;1290;61260;-74
2023/02/21 03:44:26;;;;;;;;;;;;;;;7.27;80.48;99967.64;104944;1290;61234;-74
2023/02/21 03:47:12;;;;;;;;;;;;;;;7.23;80.40;99968.20;104966;1290;75534;-74
2023/02/21 03:49:58;;;;;;;;;;;;;;;7.20;80.40;99952.48;104923;1291;68034;-74
2023/02/21 03:52:44;;;;;;;;;;;;;;;7.18;80.38;99957.99;104958;1290;74395;-74
2023/02/21 03:55:30;;;;;;;;;;;;;;;7.16;80.35;99963.67;104927;1290;61127;-74
2023/02/21 03:58:17;;;;;;;;;;;;;;;7.14;80.22;99970.55;104887;1289;61147;-73
2023/02/21 04:01:03;;;;;;;;;;;;;;;7.12;80.22;99968.02;104859;1289;74075;-73
2023/02/21 04:03:50;;;;;;;;;;;;;;;7.11;80.23;99968.36;104986;1289;69655;-73
2023/02/21 04:06:36;;;;;;;;;;;;;;;7.10;80.08;99968.20;105036;1290;71255;-73
2023/02/21 04:09:24;;;;;;;;;;;;;;;7.09;80.15;99970.96;104961;1290;60681;-73
2023/02/21 04:12:11;;;;;;;;;;;;;;;7.09;80.13;99969.41;105037;1290;61404;-73
2023/02/21 04:14:57;;;;;;;;;;;;;;;7.07;80.01;99970.13;105018;1293;74094;-73
2023/02/21 04:17:43;;;;;;;;;;;;;;;7.05;80.05;99974.27;105020;1293;67420;-73
2023/02/21 04:20:29;;;;;;;;;;;;;;;7.03;79.86;99973.77;104999;1290;72085;-74
2023/02/21 04:23:19;;;;;;;;;;;;;;;7.02;79.91;99964.18;104889;1290;59628;-74
2023/02/21 04:26:06;;;;;;;;;;;;;;;7.00;79.84;99945.89;104946;1293;61238;-74
2023/02/21 04:28:52;;;;;;;;;;;;;;;6.97;79.82;99942.49;105096;1290;73217;-73
2023/02/21 04:31:38;;;;;;;;;;;;;;;6.95;79.80;99951.76;105019;1290;67116;-73
2023/02/21 04:34:24;;;;;;;;;;;;;;;6.95;79.78;99958.09;105074;1291;72093;-73
2023/02/21 04:37:10;;;;;;;;;;;;;;;6.94;79.76;99959.66;105061;1290;61031;-73
2023/02/21 04:39:56;;;;;;;;;;;;;;;6.93;79.72;99956.41;105032;1289;61301;-73
2023/02/21 04:42:43;;;;;;;;;;;;;;;6.93;79.66;99956.75;105094;1291;73998;-73
2023/02/21 04:45:29;;;;;;;;;;;;;;;6.92;79.56;99965.50;104956;1289;67845;-73
2023/02/21 04:48:15;;;;;;;;;;;;;;;6.93;79.55;99969.08;105015;1289;71197;-73
2023/02/21 04:51:01;;;;;;;;;;;;;;;6.93;79.60;99961.71;104998;1290;59623;-73
2023/02/21 04:53:48;;;;;;;;;;;;;;;6.92;79.56;99963.95;104993;1293;59671;-74
2023/02/21 04:56:34;;;;;;;;;;;;;;;6.90;79.40;99964.14;104928;1291;73670;-73
2023/02/21 04:59:20;;;;;;;;;;;;;;;6.90;79.47;99972.04;104946;1291;68427;-73
2023/02/21 05:02:07;;;;;;;;;;;;;;;6.90;79.24;99972.38;104923;1293;72701;-73
2023/02/21 05:04:53;;;;;;;;;;;;;;;6.90;79.31;99983.86;104845;1289;61154;-73
2023/02/21 05:07:42;;;;;;;;;;;;;;;6.92;79.19;99991.20;105061;1289;62261;-73
2023/02/21 05:10:28;;;;;;;;;;;;;;;6.93;79.30;99985.71;104973;1289;74235;-74
2023/02/21 05:13:14;;;;;;;;;;;;;;;6.92;79.15;99981.60;105019;1291;70867;-74
2023/02/21 05:16:00;;;;;;;;;;;;;;;6.92;79.21;99983.49;104793;1295;71395;-73
2023/02/21 05:18:47;;;;;;;;;;;;;;;6.90;79.04;99996.88;104980;1290;61178;-72
2023/02/21 05:21:34;;;;;;;;;;;;;;;6.88;79.07;99996.90;104980;1291;61434;-73
2023/02/21 05:24:21;;;;;;;;;;;;;;;6.87;79.06;99990.73;104967;1291;73591;-74
2023/02/21 05:27:10;;;;;;;;;;;;;;;6.86;79.06;100002.41;104950;1291;69210;-74
2023/02/21 05:29:56;;;;;;;;;;;;;;;6.83;78.88;100002.77;104965;1293;73450;-74
2023/02/21 05:32:42;;;;;;;;;;;;;;;6.82;78.98;100006.20;105059;1290;61384;-74
2023/02/21 05:35:28;;;;;;;;;;;;;;;6.81;79.00;100015.13;105038;1290;61135;-74
2023/02/21 05:38:15;;;;;;;;;;;;;;;6.80;78.91;100006.92;104875;1291;75416;-74
2023/02/21 05:41:01;;;;;;;;;;;;;;;6.80;78.92;100007.09;105044;1288;70459;-74
2023/02/21 05:43:48;;;;;;;;;;;;;;;6.81;78.87;100013.25;105033;1288;72872;-74
2023/02/21 05:46:34;;;;;;;;;;;;;;;6.82;78.92;100025.23;105070;1288;61274;-74
2023/02/21 05:49:20;;;;;;;;;;;;;;;6.83;78.98;100023.34;105124;1288;61172;-74
2023/02/21 05:52:08;;;;;;;;;;;;;;;6.82;78.94;100025.56;104942;1292;75100;-74
2023/02/21 05:54:54;;;;;;;;;;;;;;;6.83;78.88;100025.05;106230;1288;67492;-74
2023/02/21 05:57:40;;;;;;;;;;;;;;;6.82;78.74;100026.60;106144;1288;72361;-74
2023/02/21 06:00:27;;;;;;;;;;;;;;;6.82;78.86;100022.33;106134;1290;59037;-75
2023/02/21 06:03:13;;;;;;;;;;;;;;;6.81;78.61;100033.80;105992;1288;59003;-75
2023/02/21 06:05:59;;;;;;;;;;;;;;;6.80;78.70;100043.59;106175;1289;75263;-74
2023/02/21 06:08:46;;;;;;;;;;;;;;;6.78;78.62;100039.31;106071;1288;69408;-74
2023/02/21 06:11:33;;;;;;;;;;;;;;;6.79;78.73;100046.52;106173;1292;72981;-74
2023/02/21 06:14:19;;;;;;;;;;;;;;;6.79;78.75;100051.81;106102;1288;59838;-75
2023/02/21 06:17:05;;;;;;;;;;;;;;;6.81;78.74;100055.56;106116;1288;59460;-75
2023/02/21 06:19:51;;;;;;;;;;;;;;;6.83;78.64;100053.31;106151;1288;74400;-75
2023/02/21 06:22:37;;;;;;;;;;;;;;;6.85;78.33;100053.64;105984;1290;68914;-75
2023/02/21 06:25:23;;;;;;;;;;;;;;;6.88;78.49;100062.52;106172;1290;70326;-75
2023/02/21 06:28:09;;;;;;;;;;;;;;;6.90;78.44;100069.69;106214;1288;59222;-75
2023/02/21 06:30:55;;;;;;;;;;;;;;;6.94;78.52;100074.80;106149;1288;59123;-75
2023/02/21 06:33:41;;;;;;;;;;;;;;;6.97;78.39;100080.94;106139;1288;73119;-75
2023/02/21 06:36:27;;;;;;;;;;;;;;;6.99;78.33;100082.63;106205;1288;68103;-75
2023/02/21 06:39:13;;;;;;;;;;;;;;;7.02;78.57;100087.05;106204;1288;71154;-75
2023/02/21 06:41:59;;;;;;;;;;;;;;;7.05;78.49;100093.71;106211;1290;59074;-75
2023/02/21 06:44:47;;;;;;;;;;;;;;;7.07;78.39;100100.20;106230;1288;60592;-75
2023/02/21 06:47:32;;;;;;;;;;;;;;;7.08;78.26;100101.39;106247;1288;73313;-75
2023/02/21 06:50:18;;;;;;;;;;;;;;;7.10;78.45;100110.46;106258;1288;66578;-75
2023/02/21 06:53:04;;;;;;;;;;;;;;;7.11;78.28;100115.25;106224;1288;73019;-75
2023/02/21 06:55:50;;;;;;;;;;;;;;;7.11;78.28;100123.64;106214;1288;59332;-75
2023/02/21 06:58:36;;;;;;;;;;;;;;;7.12;78.17;100123.98;106167;1288;59475;-75
2023/02/21 07:01:24;;;;;;;;;;;;;;;7.13;78.28;100123.45;106183;1288;73429;-75
2023/02/21 07:04:10;;;;;;;;;;;;;;;7.14;78.21;100135.27;106166;1288;67165;-75
2023/02/21 07:06:55;;;;;;;;;;;;;;;7.15;78.10;100136.98;106162;1288;72629;-75
2023/02/21 07:09:41;;;;;;;;;;;;;;;7.16;78.19;100139.53;106221;1288;59284;-75
2023/02/21 07:12:27;;;;;;;;;;;;;;;7.17;78.14;100135.41;106014;1288;59843;-75
2023/02/21 07:15:13;;;;;;;;;;;;;;;7.17;78.02;100141.75;106008;1288;75421;-75
2023/02/21 07:17:59;;;;;;;;;;;;;;;7.18;78.10;100147.91;106039;1290;67533;-75
2023/02/21 07:20:45;;;;;;;;;;;;;;;7.19;78.03;100149.45;106136;1288;72289;-75
2023/02/21 07:23:31;;;;;;;;;;;;;;;7.20;77.98;100153.55;106029;1288;59276;-75
2023/02/21 07:26:17;;;;;;;;;;;;;;;7.21;77.96;100154.91;80127;1291;5005072;-75
2023/02/21 07:29:04;;;;;;;;;;;;;;;7.23;77.93;100147.35;105867;1290;68705;-75
2023/02/21 07:31:50;;;;;;;;;;;;;;;7.25;77.94;100152.13;105813;1289;71876;-75
2023/02/21 07:34:36;;;;;;;;;;;;;;;7.26;77.73;100165.14;104991;1288;61290;-74
2023/02/21 07:37:22;;;;;;;;;;;;;;;7.27;77.81;100168.58;105140;1288;60082;-74
2023/02/21 07:40:09;;;;;;;;;;;;;;;7.28;77.82;100171.30;105088;1291;76009;-74
2023/02/21 07:42:55;;;;;;;;;;;;;;;7.30;77.82;100171.60;105052;1288;67230;-74
2023/02/21 07:45:41;;;;;;;;;;;;;;;7.30;77.74;100177.42;105062;1292;73187;-74
2023/02/21 07:48:27;;;;;;;;;;;;;;;7.30;77.73;100182.05;105144;1288;61494;-74
2023/02/21 07:51:13;;;;;;;;;;;;;;;7.31;77.74;100185.30;105200;1288;61153;-74
2023/02/21 07:53:59;;;;;;;;;;;;;;;7.32;77.56;100184.45;105046;1288;74631;-74
2023/02/21 07:56:47;;;;;;;;;;;;;;;7.33;77.56;100194.72;105169;1292;67641;-74
2023/02/21 07:59:33;;;;;;;;;;;;;;;7.34;77.65;100189.05;105061;1288;72618;-74
2023/02/21 08:02:19;;;;;;;;;;;;;;;7.35;77.57;100191.95;105133;1292;61263;-74
2023/02/21 08:05:06;;;;;;;;;;;;;;;7.36;77.48;100202.40;105049;1288;59587;-74
2023/02/21 08:07:52;;;;;;;;;;;;;;;7.35;77.55;100204.64;105158;1290;74618;-74
2023/02/21 08:10:38;;;;;;;;;;;;;;;7.35;77.48;100206.19;104965;1288;68665;-74
2023/02/21 08:13:25;;;;;;;;;;;;;;;7.37;77.58;100211.83;105109;1288;71062;-74
2023/02/21 08:16:11;;;;;;;;;;;;;;;7.37;77.36;100214.75;104967;1289;59581;-74
2023/02/21 08:18:57;;;;;;;;;;;;;;;7.37;77.23;100216.45;105133;1288;59682;-74
2023/02/21 08:21:44;;;;;;;;;;;;;;;7.37;77.30;100212.00;105148;1290;75254;-74
2023/02/21 08:24:30;;;;;;;;;;;;;;;7.37;77.35;100217.48;105143;1288;67160;-74
2023/02/21 08:27:17;;;;;;;;;;;;;;;7.38;77.30;100227.77;105181;1288;71339;-74
2023/02/21 08:30:03;;;;;;;;;;;;;;;7.38;77.31;100230.34;105165;1292;60118;-74
2023/02/21 08:32:50;;;;;;;;;;;;;;;7.39;77.08;100226.73;105135;1288;61244;-74
2023/02/21 08:35:36;;;;;;;;;;;;;;;7.40;77.22;100226.02;105148;1292;77988;-74
2023/02/21 08:38:22;;;;;;;;;;;;;;;7.42;77.06;100240.93;105151;1288;67312;-74
2023/02/21 08:41:09;;;;;;;;;;;;;;;7.45;77.16;100241.42;105128;1288;70203;-74
2023/02/21 08:43:55;;;;;;;;;;;;;;;7.46;77.05;100236.09;105098;1288;61141;-74
2023/02/21 08:46:41;;;;;;;;;;;;;;;7.47;77.08;100236.95;105123;1289;59382;-74
2023/02/21 08:49:27;;;;;;;;;;;;;;;7.49;77.02;100232.46;105053;1288;73412;-74
2023/02/21 08:52:15;;;;;;;;;;;;;;;7.50;76.87;100242.57;105163;1288;68795;-74
2023/02/21 08:55:01;;;;;;;;;;;;;;;7.51;76.84;100249.08;105088;1288;71098;-74
2023/02/21 08:57:48;;;;;;;;;;;;;;;7.53;76.84;100247.52;105162;1290;61025;-74
2023/02/21 09:00:34;;;;;;;;;;;;;;;7.55;76.71;100253.67;105168;1288;59381;-75
2023/02/21 09:03:20;;;;;;;;;;;;;;;7.57;76.60;100260.69;105019;1288;77428;-74
2023/02/21 09:06:07;;;;;;;;;;;;;;;7.58;76.79;100261.02;104984;1288;68611;-74
2023/02/21 09:08:54;;;;;;;;;;;;;;;7.62;76.58;100261.33;105089;1288;72402;-74
2023/02/21 09:11:42;;;;;;;;;;;;;;;7.68;76.75;100264.53;105131;1289;59576;-74
2023/02/21 09:14:28;;;;;;;;;;;;;;;7.75;76.65;100272.02;105076;1288;59344;-74
2023/02/21 09:17:15;;;;;;;;;;;;;;;7.79;76.70;100271.95;105136;1288;74904;-74
2023/02/21 09:20:06;;;;;;;;;;;;;;;7.82;76.55;100277.73;105091;1288;66247;-74
2023/02/21 09:22:52;;;;;;;;;;;;;;;7.85;76.53;100279.08;105006;1288;71279;-74
2023/02/21 09:25:38;;;;;;;;;;;;;;;7.88;76.59;100283.00;105099;1293;59502;-74
2023/02/21 09:28:24;;;;;;;;;;;;;;;7.90;76.48;100283.32;105093;1291;61148;-74
2023/02/21 09:31:10;;;;;;;;;;;;;;;7.93;76.57;100283.98;105151;1293;73368;-74
2023/02/21 09:33:56;;;;;;;;;;;;;;;7.95;76.44;100283.27;105085;1288;67206;-74
2023/02/21 09:36:42;;;;;;;;;;;;;;;7.97;76.58;100287.02;105087;1290;71557;-74
2023/02/21 09:39:28;;;;;;;;;;;;;;;8.00;76.45;100287.33;105117;1293;61398;-74
2023/02/21 09:42:17;;;;;;;;;;;;;;;8.06;76.41;100290.88;105128;1292;61394;-74
2023/02/21 09:45:04;;;;;;;;;;;;;;;8.08;76.38;100297.73;105086;1288;75191;-74
2023/02/21 09:47:52;;;;;;;;;;;;;;;8.10;76.37;100307.66;105046;1291;67238;-74
2023/02/21 09:50:45;;;;;;;;;;;;;;;8.10;76.38;100306.28;105126;1288;71385;-74
2023/02/21 09:53:33;;;;;;;;;;;;;;;8.08;76.06;100306.13;105107;1291;59486;-74
2023/02/21 09:56:22;;;;;;;;;;;;;;;8.07;76.22;100309.41;105122;1288;61018;-74
2023/02/21 09:59:12;;;;;;;;;;;;;;;8.05;76.04;100317.84;105138;1288;73230;-74
2023/02/21 10:02:00;;;;;;;;;;;;;;;8.04;76.15;100314.59;105150;1292;66310;-74
2023/02/21 10:04:54;;;;;;;;;;;;;;;8.07;76.13;100317.65;105172;1293;72445;-74
2023/02/21 10:07:53;;;;;;;;;;;;;;;8.09;76.04;100325.53;105083;1288;59468;-74
2023/02/21 10:10:44;;;;;;;;;;;;;;;8.10;76.10;100326.55;105230;1292;61118;-74
2023/02/21 10:13:31;;;;;;;;;;;;;;;8.09;76.01;100330.33;105157;1288;74445;-74
2023/02/21 10:16:17;;;;;;;;;;;;;;;8.09;76.02;100328.27;104994;1292;67306;-74
2023/02/21 10:19:24;;;;;;;;;;;;;;;8.10;75.90;100331.35;105043;1288;73411;-74
2023/02/21 10:22:18;;;;;;;;;;;;;;;8.10;75.87;100335.98;104407;1299;61921;-74
2023/02/21 10:25:28;;;;;;;;;;;;;;;8.09;75.63;100337.20;104539;1298;61057;-74
2023/02/21 10:28:21;;;;;;;;;;;;;;;8.08;75.79;100341.50;104608;1298;73830;-74
2023/02/21 10:31:11;;;;;;;;;;;;;;;8.10;75.70;100345.77;104402;1294;71479;-74
2023/02/21 10:33:58;;;;;;;;;;;;;;;8.12;75.76;100345.92;104588;1293;71274;-74
2023/02/21 10:36:45;;;;;;;;;;;;;;;8.14;75.46;100345.39;104495;1294;61053;-74
2023/02/21 10:39:38;;;;;;;;;;;;;;;8.14;75.64;100351.57;104518;1297;61167;-74
2023/02/21 10:42:30;;;;;;;;;;;;;;;8.14;75.60;100348.14;104586;1295;73457;-74
2023/02/21 10:45:18;;;;;;;;;;;;;;;8.14;75.59;100355.17;104525;1294;67639;-69
2023/02/21 10:48:10;;;;;;;;;;;;;;;8.13;75.66;100364.11;104400;1294;71065;-70
2023/02/21 10:50:56;;;;;;;;;;;;;;;8.10;75.51;100364.14;104615;1296;59732;-70
2023/02/21 10:53:44;;;;;;;;;;;;;;;8.08;75.50;100369.83;104638;1294;60188;-70
2023/02/21 10:56:30;;;;;;;;;;;;;;;8.10;75.65;100370.16;104535;1294;74911;-70
2023/02/21 10:59:31;;;;;;;;;;;;;;;8.10;75.61;100378.90;104832;1294;71887;-70
2023/02/21 11:02:26;;;;;;;;;;;;;;;8.11;75.58;100379.41;105092;1288;71317;-70
2023/02/21 11:05:18;;;;;;;;;;;;;;;8.11;75.46;100387.83;105076;1288;61395;-70
2023/02/21 11:08:06;;;;;;;;;;;;;;;8.12;75.48;100390.73;105140;1293;61296;-70
2023/02/21 11:10:53;;;;;;;;;;;;;;;8.11;75.42;100388.85;105117;1293;72979;-70
2023/02/21 11:13:39;;;;;;;;;;;;;;;8.11;75.42;100392.97;105100;1289;70459;-70
2023/02/21 11:16:26;;;;;;;;;;;;;;;8.09;75.45;100396.77;105118;1288;71395;-70
2023/02/21 11:19:13;;;;;;;;;;;;;;;8.09;75.41;100396.77;105001;1294;61111;-70
2023/02/21 11:22:02;;;;;;;;;;;;;;;8.10;75.37;100397.27;105129;1290;61131;-70
2023/02/21 11:24:54;;;;;;;;;;;;;;;8.11;75.42;100403.80;105083;1292;76081;-70
2023/02/21 11:27:40;;;;;;;;;;;;;;;8.11;75.30;100405.84;105097;1292;67131;-70
2023/02/21 11:30:26;;;;;;;;;;;;;;;8.09;75.22;100400.20;105053;1288;71303;-70
2023/02/21 11:33:17;;;;;;;;;;;;;;;8.04;75.16;100407.45;105087;1292;61233;-70
2023/02/21 11:36:07;;;;;;;;;;;;;;;8.01;75.19;100407.48;105152;1293;61196;-70
2023/02/21 11:38:58;;;;;;;;;;;;;;;7.99;75.20;100407.33;105082;1289;74963;-70
2023/02/21 11:41:49;;;;;;;;;;;;;;;8.02;75.23;100411.77;105060;1291;69984;-70
2023/02/21 11:44:37;;;;;;;;;;;;;;;8.06;75.28;100409.16;104867;1294;71444;-70
2023/02/21 11:47:33;;;;;;;;;;;;;;;8.08;75.11;100409.48;104859;1293;61600;-70
2023/02/21 11:50:48;;;;;;;;;;;;;;;8.06;75.00;100409.16;104761;1291;63912;-70
2023/02/21 11:53:41;;;;;;;;;;;;;;;8.07;75.17;100414.81;104580;1297;73534;-70
2023/02/21 11:56:46;;;;;;;;;;;;;;;8.08;75.15;100418.92;104529;1296;68224;-70
2023/02/21 11:59:39;;;;;;;;;;;;;;;8.08;74.95;100414.11;104577;1296;71655;-70
2023/02/21 12:02:28;;;;;;;;;;;;;;;8.09;74.98;100419.09;104626;1295;61506;-70
2023/02/21 12:05:26;;;;;;;;;;;;;;;8.09;74.94;100425.60;104463;1299;59866;-70
2023/02/21 12:08:24;;;;;;;;;;;;;;;8.14;75.01;100424.02;104624;1295;75957;-70
2023/02/21 12:11:26;;;;;;;;;;;;;;;8.18;74.90;100424.67;104617;1294;68070;-70
2023/02/21 12:14:24;;;;;;;;;;;;;;;8.24;74.86;100428.05;104590;1296;73981;-69
2023/02/21 12:17:40;;;;;;;;;;;;;;;8.30;74.79;100430.39;104456;1294;59614;-70
2023/02/21 12:20:42;;;;;;;;;;;;;;;8.36;74.80;100427.94;105633;1294;59504;-70
2023/02/21 12:23:54;;;;;;;;;;;;;;;8.38;74.59;100432.21;105480;1294;73828;-70
2023/02/21 12:26:46;;;;;;;;;;;;;;;8.40;74.64;100431.67;105628;1296;68146;-70
2023/02/21 12:29:47;;;;;;;;;;;;;;;8.43;74.65;100436.80;104774;1289;72484;-70
2023/02/21 12:32:49;;;;;;;;;;;;;;;8.45;74.66;100437.30;105028;1289;63332;-70
2023/02/21 12:35:53;;;;;;;;;;;;;;;8.46;74.63;100442.60;104999;1293;59654;-70
2023/02/21 12:39:00;;;;;;;;;;;;;;;8.48;74.59;100444.31;105051;1294;73172;-70
2023/02/21 12:41:52;;;;;;;;;;;;;;;8.49;74.54;100445.16;101999;1289;5003103;-70
2023/02/21 12:44:51;;;;;;;;;;;;;;;8.51;74.74;100446.50;106102;1288;58388;-70
2023/02/21 12:48:00;;;;;;;;;;;;;;;8.54;74.59;100450.77;106147;1292;59497;-70
2023/02/21 12:50:51;;;;;;;;;;;;;;;8.55;74.64;100452.65;105877;1290;73172;-70
2023/02/21 12:53:42;;;;;;;;;;;;;;;8.53;74.71;100452.15;106132;1290;67675;-70
2023/02/21 12:56:33;;;;;;;;;;;;;;;8.54;74.60;100450.44;106082;1290;72021;-70
2023/02/21 12:59:38;;;;;;;;;;;;;;;8.53;74.54;100443.58;106079;1292;59394;-70
2023/02/21 13:02:35;;;;;;;;;;;;;;;8.52;74.58;100447.86;106133;1288;59157;-70
2023/02/21 13:05:43;;;;;;;;;;;;;;;8.55;74.55;100449.73;106110;1289;73378;-70
2023/02/21 13:08:37;;;;;;;;;;;;;;;8.59;74.59;100448.66;106072;1290;67461;-70
2023/02/21 13:11:25;;;;;;;;;;;;;;;8.60;74.57;100447.27;106015;1288;72434;-70
2023/02/21 13:14:17;;;;;;;;;;;;;;;8.64;74.60;100443.80;106104;1290;58897;-70
2023/02/21 13:17:03;;;;;;;;;;;;;;;8.66;74.35;100443.44;106037;1288;59773;-70
2023/02/21 13:19:53;;;;;;;;;;;;;;;8.67;74.49;100443.08;106089;1292;73730;-70
2023/02/21 13:22:58;;;;;;;;;;;;;;;8.70;74.50;100447.35;106014;1288;68119;-70
2023/02/21 13:25:47;;;;;;;;;;;;;;;8.74;74.47;100444.20;106056;1288;72214;-70
2023/02/21 13:28:37;;;;;;;;;;;;;;;8.74;74.45;100447.29;106052;1288;59004;-70
2023/02/21 13:31:25;;;;;;;;;;;;;;;8.77;74.56;100445.55;105854;1290;59881;-70
2023/02/21 13:34:13;;;;;;;;;;;;;;;8.79;74.49;100450.16;105106;1291;73407;-70
2023/02/21 13:37:05;;;;;;;;;;;;;;;8.83;74.51;100450.62;105236;1290;67308;-70
2023/02/21 13:39:54;;;;;;;;;;;;;;;8.87;74.45;100458.45;105185;1288;75341;-70
2023/02/21 13:42:40;;;;;;;;;;;;;;;8.89;74.37;100460.67;105157;1288;61389;-70
2023/02/21 13:45:26;;;;;;;;;;;;;;;8.86;74.27;100460.02;105208;1292;59532;-70
2023/02/21 13:48:26;;;;;;;;;;;;;;;8.83;74.32;100463.33;105159;1292;74000;-70
2023/02/21 13:51:32;;;;;;;;;;;;;;;8.80;74.21;100466.99;105149;1288;67264;-70
2023/02/21 13:54:22;;;;;;;;;;;;;;;8.79;74.08;100466.50;105149;1288;71211;-70
2023/02/21 13:57:28;;;;;;;;;;;;;;;8.76;74.23;100461.20;105102;1292;60011;-70
2023/02/21 14:00:20;;;;;;;;;;;;;;;8.78;74.20;100464.79;105130;1288;61413;-69
2023/02/21 14:03:08;;;;;;;;;;;;;;;8.78;74.14;100468.56;105032;1290;74091;-70
2023/02/21 14:05:54;;;;;;;;;;;;;;;8.78;74.09;100462.55;105083;1288;67295;-70
2023/02/21 14:08:42;;;;;;;;;;;;;;;8.75;74.01;100465.51;105037;1288;71175;-70
2023/02/21 14:11:33;;;;;;;;;;;;;;;8.72;74.00;100467.60;105107;1288;61619;-70
2023/02/21 14:14:31;;;;;;;;;;;;;;;8.68;74.02;100464.55;105177;1292;61183;-70
2023/02/21 14:17:27;;;;;;;;;;;;;;;8.65;73.87;100464.23;104968;1288;75430;-70
2023/02/21 14:20:18;;;;;;;;;;;;;;;8.62;74.05;100464.94;105157;1288;68844;-70
2023/02/21 14:23:04;;;;;;;;;;;;;;;8.60;73.83;100470.81;104649;1288;73971;-70
2023/02/21 14:25:54;;;;;;;;;;;;;;;8.57;73.89;100478.40;104595;1288;61343;-69
2023/02/21 14:29:07;;;;;;;;;;;;;;;8.55;73.83;100480.48;104616;1291;62783;-69
2023/02/21 14:32:14;;;;;;;;;;;;;;;8.52;73.74;100485.67;104645;1292;72231;-69
2023/02/21 14:35:01;;;;;;;;;;;;;;;8.45;73.70;100485.20;104690;1289;67137;-69
2023/02/21 14:37:57;;;;;;;;;;;;;;;8.42;73.66;100498.48;104669;1288;71236;-69
2023/02/21 14:41:07;;;;;;;;;;;;;;;8.39;73.63;100498.85;104674;1288;61118;-69
2023/02/21 14:44:19;;;;;;;;;;;;;;;8.35;73.61;100491.83;104654;1288;61147;-69
2023/02/21 14:47:12;;;;;;;;;;;;;;;8.30;73.58;100503.55;104682;1290;77740;-69
2023/02/21 14:50:13;;;;;;;;;;;;;;;8.28;73.71;100503.40;105036;1288;67147;-70
2023/02/21 14:53:11;;;;;;;;;;;;;;;8.26;73.68;100505.30;104426;1288;393739;-70
2023/02/21 14:56:01;;;;;;;;;;;;;;;8.22;73.59;100509.80;104614;1294;61256;-70
2023/02/21 14:58:55;;;;;;;;;;;;;;;8.18;73.66;100513.61;105117;1288;59874;-69
2023/02/21 15:01:44;;;;;;;;;;;;;;;8.17;73.62;100513.63;104725;1288;76056;-70
2023/02/21 15:04:38;;;;;;;;;;;;;;;8.15;73.63;100520.50;104728;1288;67223;-69
2023/02/21 15:07:41;;;;;;;;;;;;;;;8.13;73.59;100519.48;104744;1288;70537;-69
2023/02/21 15:10:29;;;;;;;;;;;;;;;8.09;73.52;100529.65;104777;1291;61146;-69
2023/02/21 15:13:23;;;;;;;;;;;;;;;8.06;73.57;100539.45;104793;1288;61250;-69
2023/02/21 15:16:11;;;;;;;;;;;;;;;8.04;73.59;100539.81;104851;1288;74896;-69
2023/02/21 15:18:59;;;;;;;;;;;;;;;8.01;73.61;100541.89;106163;1288;67484;-70
2023/02/21 15:21:45;;;;;;;;;;;;;;;8.00;73.62;100545.51;106091;1288;72156;-70
2023/02/21 15:24:31;;;;;;;;;;;;;;;7.99;73.61;100552.20;106143;1288;59027;-70
2023/02/21 15:27:17;;;;;;;;;;;;;;;7.99;73.57;100552.38;106124;1288;59472;-70
2023/02/21 15:30:05;;;;;;;;;;;;;;;7.99;73.49;100550.15;106196;1289;74316;-70
2023/02/21 15:32:54;;;;;;;;;;;;;;;7.98;73.51;100550.48;106152;1288;66234;-70
2023/02/21 15:36:03;;;;;;;;;;;;;;;7.99;73.54;100555.98;106137;1288;72375;-70
2023/02/21 15:38:59;;;;;;;;;;;;;;;7.99;73.46;100557.52;106240;1288;58849;-70
2023/02/21 15:41:47;;;;;;;;;;;;;;;7.97;73.46;100558.05;106193;1288;60470;-70
2023/02/21 15:44:33;;;;;;;;;;;;;;;7.98;73.55;100563.71;106016;1290;75046;-70
2023/02/21 15:47:20;;;;;;;;;;;;;;;7.97;73.42;100565.95;106124;1289;68681;-70
2023/02/21 15:50:10;;;;;;;;;;;;;;;7.95;73.50;100572.65;106122;1288;71490;-70
2023/02/21 15:53:09;;;;;;;;;;;;;;;7.93;73.42;100573.86;106166;1288;59311;-70
2023/02/21 15:56:13;;;;;;;;;;;;;;;7.90;73.49;100578.35;106100;1288;59920;-70
2023/02/21 15:59:10;;;;;;;;;;;;;;;7.86;73.36;100577.86;106095;1290;74562;-70
2023/02/21 16:02:08;;;;;;;;;;;;;;;7.84;73.41;100576.33;106203;1288;67370;-70
2023/02/21 16:04:54;;;;;;;;;;;;;;;7.82;73.36;100580.62;106075;1288;71597;-70
2023/02/21 16:07:40;;;;;;;;;;;;;;;7.80;73.43;100585.29;106212;1288;59309;-70
2023/02/21 16:10:26;;;;;;;;;;;;;;;7.78;73.28;100583.42;106259;1288;58978;-70
2023/02/21 16:13:13;;;;;;;;;;;;;;;7.74;73.35;100582.75;106298;1288;73113;-70
2023/02/21 16:15:59;;;;;;;;;;;;;;;7.73;73.26;100590.83;106164;1288;67178;-72
2023/02/21 16:18:45;;;;;;;;;;;;;;;7.72;73.26;100593.73;106220;1288;71016;-76
2023/02/21 16:21:31;;;;;;;;;;;;;;;7.70;73.20;100593.23;106134;1288;59051;-71
2023/02/21 16:24:28;;;;;;;;;;;;;;;7.65;73.18;100593.60;106162;1288;60664;-71
2023/02/21 16:27:15;;;;;;;;;;;;;;;7.61;73.28;100594.81;106180;1288;75015;-71
2023/02/21 16:30:02;;;;;;;;;;;;;;;7.59;73.20;100594.98;106037;1288;68397;-71
2023/02/21 16:32:49;;;;;;;;;;;;;;;7.58;73.10;100598.95;106119;1288;71218;-71
2023/02/21 16:35:35;;;;;;;;;;;;;;;7.56;73.24;100601.70;106134;1289;59237;-71
2023/02/21 16:38:22;;;;;;;;;;;;;;;7.56;73.13;100604.45;106126;1288;59284;-71
2023/02/21 16:41:12;;;;;;;;;;;;;;;7.55;73.19;100602.90;106142;1288;73234;-71
2023/02/21 16:43:58;;;;;;;;;;;;;;;7.54;73.14;100606.67;106261;1288;68869;-71
2023/02/21 16:46:44;;;;;;;;;;;;;;;7.54;73.16;100611.83;106129;1288;71328;-71
2023/02/21 16:49:30;;;;;;;;;;;;;;;7.54;73.17;100620.58;106103;1288;59078;-71